sensor_id;sensor_type;location;lat;lon;timestamp;pressure;altitude;pressure_sealevel;temperature;humidity
73105;BME280;61296;50.526;30.792;2023-08-06T00:01:32;99130.63;;;22.03;79.01
73105;BME280;61296;50.526;30.792;2023-08-06T00:16:51;99134.28;;;22.22;78.65
73105;BME280;61296;50.526;30.792;2023-08-06T00:32:11;99052.31;;;21.63;78.57
73105;BME280;61296;50.526;30.792;2023-08-06T00:47:30;99163.09;;;22.32;78.83
73105;BME280;61296;50.526;30.792;2023-08-06T01:02:49;99062.25;;;21.64;78.98
73105;BME280;61296;50.526;30.792;2023-08-06T01:18:10;99154.47;;;22.08;79.66
73105;BME280;61296;50.526;30.792;2023-08-06T01:33:32;99112.34;;;21.71;80.18
73105;BME280;61296;50.526;30.792;2023-08-06T01:48:53;99023.50;;;21.13;80.94
73105;BME280;61296;50.526;30.792;2023-08-06T02:04:15;99026.59;;;21.06;81.30
73105;BME280;61296;50.526;30.792;2023-08-06T02:19:36;99075.69;;;21.38;81.80
73105;BME280;61296;50.526;30.792;2023-08-06T02:34:55;99107.25;;;21.39;82.04
73105;BME280;61296;50.526;30.792;2023-08-06T02:50:15;99087.22;;;21.18;82.62
73105;BME280;61296;50.526;30.792;2023-08-06T03:05:34;99106.94;;;21.37;82.30
73105;BME280;61296;50.526;30.792;2023-08-06T03:20:54;99039.38;;;21.16;81.03
73105;BME280;61296;50.526;30.792;2023-08-06T03:36:14;99060.66;;;21.54;79.25
73105;BME280;61296;50.526;30.792;2023-08-06T03:51:34;99102.38;;;22.19;78.05
73105;BME280;61296;50.526;30.792;2023-08-06T04:06:55;99028.63;;;22.13;76.21
73105;BME280;61296;50.526;30.792;2023-08-06T04:22:15;98992.22;;;22.32;74.66
73105;BME280;61296;50.526;30.792;2023-08-06T04:37:35;98985.03;;;22.40;73.82
73105;BME280;61296;50.526;30.792;2023-08-06T04:52:55;98950.16;;;23.01;71.92
73105;BME280;61296;50.526;30.792;2023-08-06T05:08:15;99035.69;;;24.44;68.43
73105;BME280;61296;50.526;30.792;2023-08-06T05:23:38;98972.41;;;24.93;64.78
73105;BME280;61296;50.526;30.792;2023-08-06T05:38:57;99001.53;;;25.95;60.63
73105;BME280;61296;50.526;30.792;2023-08-06T05:54:17;98984.38;;;26.39;59.82
73105;BME280;61296;50.526;30.792;2023-08-06T06:09:36;98899.31;;;26.72;56.38
73105;BME280;61296;50.526;30.792;2023-08-06T06:24:55;98892.91;;;27.03;55.21
73105;BME280;61296;50.526;30.792;2023-08-06T06:40:15;98934.63;;;27.74;55.00
73105;BME280;61296;50.526;30.792;2023-08-06T06:55:35;98875.09;;;28.11;52.44
73105;BME280;61296;50.526;30.792;2023-08-06T07:11:05;98845.59;;;28.29;50.84
73105;BME280;61296;50.526;30.792;2023-08-06T07:26:25;98843.50;;;28.80;50.46
73105;BME280;61296;50.526;30.792;2023-08-06T07:41:45;98832.84;;;29.25;49.62
73105;BME280;61296;50.526;30.792;2023-08-06T07:57:05;98776.81;;;29.12;49.52
73105;BME280;61296;50.526;30.792;2023-08-06T08:12:25;98735.03;;;29.29;50.36
73105;BME280;61296;50.526;30.792;2023-08-06T08:27:44;98832.41;;;30.14;50.14
73105;BME280;61296;50.526;30.792;2023-08-06T08:43:06;98727.38;;;29.96;49.05
73105;BME280;61296;50.526;30.792;2023-08-06T08:58:26;98753.28;;;30.41;47.89
73105;BME280;61296;50.526;30.792;2023-08-06T09:13:45;98784.44;;;30.77;48.09
73105;BME280;61296;50.526;30.792;2023-08-06T09:29:05;98764.16;;;30.61;46.41
73105;BME280;61296;50.526;30.792;2023-08-06T09:44:27;98666.13;;;30.66;45.42
73105;BME280;61296;50.526;30.792;2023-08-06T09:59:46;98727.66;;;31.20;46.74
73105;BME280;61296;50.526;30.792;2023-08-06T10:15:11;98652.41;;;31.08;46.55
73105;BME280;61296;50.526;30.792;2023-08-06T10:30:33;98663.50;;;31.62;45.52
73105;BME280;61296;50.526;30.792;2023-08-06T10:46:04;98606.28;;;31.39;45.45
73105;BME280;61296;50.526;30.792;2023-08-06T11:01:32;98612.22;;;31.68;45.53
73105;BME280;61296;50.526;30.792;2023-08-06T11:16:54;98555.75;;;31.77;45.24
73105;BME280;61296;50.526;30.792;2023-08-06T11:32:13;98596.56;;;32.06;44.65
73105;BME280;61296;50.526;30.792;2023-08-06T11:47:32;98496.47;;;32.08;44.38
73105;BME280;61296;50.526;30.792;2023-08-06T12:02:52;98512.09;;;32.41;42.51
73105;BME280;61296;50.526;30.792;2023-08-06T12:18:12;98501.66;;;32.57;41.60
73105;BME280;61296;50.526;30.792;2023-08-06T12:33:32;98484.25;;;32.60;40.55
73105;BME280;61296;50.526;30.792;2023-08-06T12:48:51;98496.25;;;33.00;40.59
73105;BME280;61296;50.526;30.792;2023-08-06T13:04:22;98391.50;;;32.44;40.48
73105;BME280;61296;50.526;30.792;2023-08-06T13:19:42;98377.22;;;32.57;40.44
73105;BME280;61296;50.526;30.792;2023-08-06T13:35:05;98395.25;;;32.81;39.46
73105;BME280;61296;50.526;30.792;2023-08-06T13:50:24;98446.66;;;33.17;38.71
73105;BME280;61296;50.526;30.792;2023-08-06T14:05:45;98383.44;;;33.18;37.69
73105;BME280;61296;50.526;30.792;2023-08-06T14:21:05;98353.94;;;33.08;36.19
73105;BME280;61296;50.526;30.792;2023-08-06T14:36:26;98365.00;;;33.19;35.81
73105;BME280;61296;50.526;30.792;2023-08-06T14:51:45;98334.09;;;32.95;37.97
73105;BME280;61296;50.526;30.792;2023-08-06T15:07:05;98320.75;;;32.69;38.84
73105;BME280;61296;50.526;30.792;2023-08-06T15:22:25;98264.78;;;32.43;39.93
73105;BME280;61296;50.526;30.792;2023-08-06T15:37:44;98331.28;;;32.82;41.00
73105;BME280;61296;50.526;30.792;2023-08-06T15:53:05;98293.41;;;32.24;41.79
73105;BME280;61296;50.526;30.792;2023-08-06T16:08:25;98225.75;;;31.54;42.37
73105;BME280;61296;50.526;30.792;2023-08-06T16:23:44;98265.28;;;31.66;43.01
73105;BME280;61296;50.526;30.792;2023-08-06T16:39:04;98282.09;;;31.29;45.00
73105;BME280;61296;50.526;30.792;2023-08-06T16:54:23;98266.09;;;30.60;47.40
73105;BME280;61296;50.526;30.792;2023-08-06T17:09:43;98264.19;;;30.36;48.14
73105;BME280;61296;50.526;30.792;2023-08-06T17:25:02;98244.41;;;29.99;49.13
73105;BME280;61296;50.526;30.792;2023-08-06T17:40:21;98224.25;;;29.32;51.13
73105;BME280;61296;50.526;30.792;2023-08-06T17:55:42;98208.72;;;29.01;52.44
73105;BME280;61296;50.526;30.792;2023-08-06T18:11:01;98236.09;;;29.12;52.96
73105;BME280;61296;50.526;30.792;2023-08-06T18:26:21;98184.44;;;28.63;52.78
73105;BME280;61296;50.526;30.792;2023-08-06T18:41:41;98187.88;;;28.56;53.43
73105;BME280;61296;50.526;30.792;2023-08-06T18:57:01;98127.41;;;28.10;53.31
73105;BME280;61296;50.526;30.792;2023-08-06T19:12:21;98224.53;;;28.67;52.97
73105;BME280;61296;50.526;30.792;2023-08-06T19:27:41;98163.38;;;28.09;52.19
73105;BME280;61296;50.526;30.792;2023-08-06T19:43:00;98135.88;;;28.10;51.67
73105;BME280;61296;50.526;30.792;2023-08-06T19:58:20;98167.09;;;28.23;51.36
73105;BME280;61296;50.526;30.792;2023-08-06T20:13:39;98131.78;;;27.81;51.04
73105;BME280;61296;50.526;30.792;2023-08-06T20:28:59;98194.38;;;28.21;50.93
73105;BME280;61296;50.526;30.792;2023-08-06T20:44:20;98095.28;;;27.17;51.95
73105;BME280;61296;50.526;30.792;2023-08-06T20:59:39;98121.97;;;27.22;52.41
73105;BME280;61296;50.526;30.792;2023-08-06T21:14:59;98087.22;;;26.91;53.04
73105;BME280;61296;50.526;30.792;2023-08-06T21:30:18;98056.28;;;26.80;53.03
73105;BME280;61296;50.526;30.792;2023-08-06T21:45:39;98041.19;;;26.72;53.21
73105;BME280;61296;50.526;30.792;2023-08-06T22:00:59;98121.53;;;27.07;53.58
73105;BME280;61296;50.526;30.792;2023-08-06T22:16:18;98054.41;;;26.47;54.90
73105;BME280;61296;50.526;30.792;2023-08-06T22:31:37;98124.28;;;26.65;56.06
73105;BME280;61296;50.526;30.792;2023-08-06T22:46:56;98107.16;;;26.46;56.99
73105;BME280;61296;50.526;30.792;2023-08-06T23:02:15;97986.53;;;25.53;57.38
73105;BME280;61296;50.526;30.792;2023-08-06T23:17:35;97973.75;;;25.41;58.11
73105;BME280;61296;50.526;30.792;2023-08-06T23:32:54;98025.16;;;25.64;58.80
73105;BME280;61296;50.526;30.792;2023-08-06T23:48:15;98009.81;;;25.65;59.55
